sensor_id;sensor_type;location;lat;lon;timestamp;P1;durP1;ratioP1;P2;durP2;ratioP2
71821;SDS011;64096;52.548;13.406;2023-02-01T06:02:59;11.55;;;3.13;;
71821;SDS011;64096;52.548;13.406;2023-02-01T06:05:26;10.82;;;2.40;;
71821;SDS011;64096;52.548;13.406;2023-02-01T06:07:53;11.65;;;2.90;;
71821;SDS011;64096;52.548;13.406;2023-02-01T06:10:19;9.93;;;1.95;;
71821;SDS011;64096;52.548;13.406;2023-02-01T06:12:45;11.27;;;2.65;;
71821;SDS011;64096;52.548;13.406;2023-02-01T06:15:12;10.90;;;2.40;;
71821;SDS011;64096;52.548;13.406;2023-02-01T06:17:40;12.30;;;3.05;;
71821;SDS011;64096;52.548;13.406;2023-02-01T06:20:08;10.13;;;2.63;;
71821;SDS011;64096;52.548;13.406;2023-02-01T06:22:34;9.75;;;2.38;;
71821;SDS011;64096;52.548;13.406;2023-02-01T06:25:01;11.15;;;2.15;;
71821;SDS011;64096;52.548;13.406;2023-02-01T06:27:27;10.60;;;2.75;;
71821;SDS011;64096;52.548;13.406;2023-02-01T06:29:53;8.98;;;2.47;;
71821;SDS011;64096;52.548;13.406;2023-02-01T06:32:20;9.77;;;2.55;;
71821;SDS011;64096;52.548;13.406;2023-02-01T06:34:46;10.00;;;2.13;;
71821;SDS011;64096;52.548;13.406;2023-02-01T06:37:12;10.77;;;3.13;;
71821;SDS011;64096;52.548;13.406;2023-02-01T06:39:39;10.98;;;3.35;;
71821;SDS011;64096;52.548;13.406;2023-02-01T06:42:05;9.38;;;2.65;;
71821;SDS011;64096;52.548;13.406;2023-02-01T06:44:31;11.95;;;2.55;;
71821;SDS011;64096;52.548;13.406;2023-02-01T06:46:57;8.70;;;2.40;;
71821;SDS011;64096;52.548;13.406;2023-02-01T06:49:23;10.27;;;2.50;;
71821;SDS011;64096;52.548;13.406;2023-02-01T06:51:49;9.95;;;2.88;;
71821;SDS011;64096;52.548;13.406;2023-02-01T06:54:15;9.65;;;2.92;;
71821;SDS011;64096;52.548;13.406;2023-02-01T06:56:41;11.48;;;2.75;;
71821;SDS011;64096;52.548;13.406;2023-02-01T06:59:07;9.57;;;2.67;;
71821;SDS011;64096;52.548;13.406;2023-02-01T07:01:33;9.63;;;2.55;;
71821;SDS011;64096;52.548;13.406;2023-02-01T07:04:00;11.52;;;2.63;;
71821;SDS011;64096;52.548;13.406;2023-02-01T07:06:26;9.32;;;2.13;;
71821;SDS011;64096;52.548;13.406;2023-02-01T07:08:52;14.15;;;2.78;;
71821;SDS011;64096;52.548;13.406;2023-02-01T07:11:20;9.52;;;2.60;;
71821;SDS011;64096;52.548;13.406;2023-02-01T07:13:47;11.35;;;2.90;;
71821;SDS011;64096;52.548;13.406;2023-02-01T07:16:14;11.90;;;3.00;;
71821;SDS011;64096;52.548;13.406;2023-02-01T07:18:40;12.73;;;2.88;;
71821;SDS011;64096;52.548;13.406;2023-02-01T07:21:07;9.90;;;2.75;;
71821;SDS011;64096;52.548;13.406;2023-02-01T07:23:33;11.68;;;2.35;;
71821;SDS011;64096;52.548;13.406;2023-02-01T07:26:00;8.35;;;2.17;;
71821;SDS011;64096;52.548;13.406;2023-02-01T07:28:28;13.15;;;3.30;;
71821;SDS011;64096;52.548;13.406;2023-02-01T07:30:54;14.63;;;3.08;;
71821;SDS011;64096;52.548;13.406;2023-02-01T07:33:21;8.60;;;2.55;;
71821;SDS011;64096;52.548;13.406;2023-02-01T07:35:48;10.82;;;2.38;;
71821;SDS011;64096;52.548;13.406;2023-02-01T07:38:14;10.25;;;2.65;;
71821;SDS011;64096;52.548;13.406;2023-02-01T07:40:40;12.27;;;2.85;;
71821;SDS011;64096;52.548;13.406;2023-02-01T07:43:06;7.75;;;2.58;;
71821;SDS011;64096;52.548;13.406;2023-02-01T07:45:33;8.20;;;2.65;;
71821;SDS011;64096;52.548;13.406;2023-02-01T07:47:59;8.23;;;2.42;;
71821;SDS011;64096;52.548;13.406;2023-02-01T07:50:25;8.98;;;2.22;;
71821;SDS011;64096;52.548;13.406;2023-02-01T07:52:51;8.45;;;2.50;;
71821;SDS011;64096;52.548;13.406;2023-02-01T07:55:18;11.75;;;3.08;;
71821;SDS011;64096;52.548;13.406;2023-02-01T07:57:44;9.25;;;2.70;;
71821;SDS011;64096;52.548;13.406;2023-02-01T08:00:10;7.88;;;2.55;;
71821;SDS011;64096;52.548;13.406;2023-02-01T08:02:59;7.75;;;2.42;;
71821;SDS011;64096;52.548;13.406;2023-02-01T08:05:25;8.10;;;2.55;;
71821;SDS011;64096;52.548;13.406;2023-02-01T08:07:51;9.48;;;3.42;;
71821;SDS011;64096;52.548;13.406;2023-02-01T08:10:17;8.68;;;2.20;;
71821;SDS011;64096;52.548;13.406;2023-02-01T08:12:44;10.38;;;2.63;;
71821;SDS011;64096;52.548;13.406;2023-02-01T08:15:14;6.20;;;2.17;;
71821;SDS011;64096;52.548;13.406;2023-02-01T08:17:45;8.00;;;2.55;;
71821;SDS011;64096;52.548;13.406;2023-02-01T08:20:11;6.32;;;1.80;;
71821;SDS011;64096;52.548;13.406;2023-02-01T08:22:38;5.50;;;1.90;;
71821;SDS011;64096;52.548;13.406;2023-02-01T08:25:04;9.05;;;2.22;;
71821;SDS011;64096;52.548;13.406;2023-02-01T08:27:32;7.07;;;2.72;;
71821;SDS011;64096;52.548;13.406;2023-02-01T08:29:58;7.72;;;2.60;;
71821;SDS011;64096;52.548;13.406;2023-02-01T08:32:25;9.13;;;2.85;;
71821;SDS011;64096;52.548;13.406;2023-02-01T08:34:51;5.90;;;2.00;;
71821;SDS011;64096;52.548;13.406;2023-02-01T08:37:17;10.60;;;2.10;;
71821;SDS011;64096;52.548;13.406;2023-02-01T08:39:43;5.97;;;1.63;;
71821;SDS011;64096;52.548;13.406;2023-02-01T08:42:10;6.47;;;2.10;;
71821;SDS011;64096;52.548;13.406;2023-02-01T08:44:55;11.48;;;4.80;;
71821;SDS011;64096;52.548;13.406;2023-02-01T08:47:21;8.55;;;2.88;;
71821;SDS011;64096;52.548;13.406;2023-02-01T08:49:47;7.53;;;1.88;;
71821;SDS011;64096;52.548;13.406;2023-02-01T08:52:13;5.22;;;1.83;;
71821;SDS011;64096;52.548;13.406;2023-02-01T08:54:39;4.57;;;1.58;;
71821;SDS011;64096;52.548;13.406;2023-02-01T08:57:07;6.82;;;1.90;;
71821;SDS011;64096;52.548;13.406;2023-02-01T08:59:34;5.38;;;1.65;;
71821;SDS011;64096;52.548;13.406;2023-02-01T09:02:00;6.82;;;1.70;;
71821;SDS011;64096;52.548;13.406;2023-02-01T09:04:26;4.53;;;1.35;;
71821;SDS011;64096;52.548;13.406;2023-02-01T09:06:52;5.47;;;1.88;;
71821;SDS011;64096;52.548;13.406;2023-02-01T09:09:20;4.28;;;1.50;;
71821;SDS011;64096;52.548;13.406;2023-02-01T09:11:46;4.25;;;1.67;;
71821;SDS011;64096;52.548;13.406;2023-02-01T09:14:12;4.90;;;1.48;;
71821;SDS011;64096;52.548;13.406;2023-02-01T09:16:39;4.90;;;1.77;;
71821;SDS011;64096;52.548;13.406;2023-02-01T09:19:05;4.68;;;1.45;;
71821;SDS011;64096;52.548;13.406;2023-02-01T09:21:31;4.45;;;1.38;;
71821;SDS011;64096;52.548;13.406;2023-02-01T09:23:57;3.90;;;1.17;;
71821;SDS011;64096;52.548;13.406;2023-02-01T09:26:23;5.43;;;1.27;;
71821;SDS011;64096;52.548;13.406;2023-02-01T09:28:50;3.33;;;1.27;;
71821;SDS011;64096;52.548;13.406;2023-02-01T09:31:16;3.97;;;1.15;;
71821;SDS011;64096;52.548;13.406;2023-02-01T09:33:42;4.35;;;1.38;;
71821;SDS011;64096;52.548;13.406;2023-02-01T09:36:09;4.20;;;1.85;;
71821;SDS011;64096;52.548;13.406;2023-02-01T09:38:35;4.35;;;1.30;;
71821;SDS011;64096;52.548;13.406;2023-02-01T09:41:01;4.00;;;1.20;;
71821;SDS011;64096;52.548;13.406;2023-02-01T09:48:30;3.17;;;1.10;;
71821;SDS011;64096;52.548;13.406;2023-02-01T09:50:59;3.20;;;1.23;;
71821;SDS011;64096;52.548;13.406;2023-02-01T09:53:29;4.07;;;1.15;;
71821;SDS011;64096;52.548;13.406;2023-02-01T09:56:05;3.03;;;0.90;;
71821;SDS011;64096;52.548;13.406;2023-02-01T10:00:58;3.00;;;1.13;;
71821;SDS011;64096;52.548;13.406;2023-02-01T10:03:26;1.77;;;1.00;;
71821;SDS011;64096;52.548;13.406;2023-02-01T10:08:33;2.75;;;0.70;;
71821;SDS011;64096;52.548;13.406;2023-02-01T10:14:01;3.00;;;1.00;;
71821;SDS011;64096;52.548;13.406;2023-02-01T10:16:40;3.53;;;0.93;;
71821;SDS011;64096;52.548;13.406;2023-02-01T10:19:33;3.47;;;1.30;;
71821;SDS011;64096;52.548;13.406;2023-02-01T10:27:53;4.20;;;1.00;;
71821;SDS011;64096;52.548;13.406;2023-02-01T10:30:23;2.85;;;0.85;;
71821;SDS011;64096;52.548;13.406;2023-02-01T10:32:55;3.92;;;1.00;;
71821;SDS011;64096;52.548;13.406;2023-02-01T10:35:27;3.30;;;1.05;;
71821;SDS011;64096;52.548;13.406;2023-02-01T10:37:54;8.82;;;1.67;;
71821;SDS011;64096;52.548;13.406;2023-02-01T10:40:24;4.18;;;1.00;;
71821;SDS011;64096;52.548;13.406;2023-02-01T10:42:51;4.45;;;1.02;;
71821;SDS011;64096;52.548;13.406;2023-02-01T10:45:21;4.55;;;0.98;;
71821;SDS011;64096;52.548;13.406;2023-02-01T10:47:48;4.47;;;1.40;;
71821;SDS011;64096;52.548;13.406;2023-02-01T10:50:37;3.05;;;1.33;;
71821;SDS011;64096;52.548;13.406;2023-02-01T10:53:14;4.07;;;1.20;;
71821;SDS011;64096;52.548;13.406;2023-02-01T10:58:20;4.35;;;1.27;;
71821;SDS011;64096;52.548;13.406;2023-02-01T11:00:48;2.25;;;0.70;;
71821;SDS011;64096;52.548;13.406;2023-02-01T11:05:47;4.72;;;1.23;;
71821;SDS011;64096;52.548;13.406;2023-02-01T11:08:16;4.03;;;0.95;;
71821;SDS011;64096;52.548;13.406;2023-02-01T11:10:44;4.72;;;1.30;;
71821;SDS011;64096;52.548;13.406;2023-02-01T11:13:12;4.03;;;1.05;;
71821;SDS011;64096;52.548;13.406;2023-02-01T11:15:42;5.22;;;1.50;;
71821;SDS011;64096;52.548;13.406;2023-02-01T11:18:16;5.45;;;1.50;;
71821;SDS011;64096;52.548;13.406;2023-02-01T11:20:42;6.15;;;1.67;;
71821;SDS011;64096;52.548;13.406;2023-02-01T11:23:14;5.20;;;1.60;;
71821;SDS011;64096;52.548;13.406;2023-02-01T11:25:51;5.00;;;1.48;;
71821;SDS011;64096;52.548;13.406;2023-02-01T11:28:17;4.18;;;1.17;;
71821;SDS011;64096;52.548;13.406;2023-02-01T11:30:44;6.97;;;1.73;;
71821;SDS011;64096;52.548;13.406;2023-02-01T11:33:19;5.75;;;1.35;;
71821;SDS011;64096;52.548;13.406;2023-02-01T11:35:46;5.85;;;1.38;;
71821;SDS011;64096;52.548;13.406;2023-02-01T11:38:47;4.85;;;1.58;;
71821;SDS011;64096;52.548;13.406;2023-02-01T11:41:12;6.18;;;1.30;;
71821;SDS011;64096;52.548;13.406;2023-02-01T11:43:50;6.18;;;1.52;;
71821;SDS011;64096;52.548;13.406;2023-02-01T11:46:17;5.50;;;1.63;;
71821;SDS011;64096;52.548;13.406;2023-02-01T11:48:49;5.95;;;1.73;;
71821;SDS011;64096;52.548;13.406;2023-02-01T11:51:36;5.72;;;1.25;;
71821;SDS011;64096;52.548;13.406;2023-02-01T11:56:58;5.55;;;1.70;;
71821;SDS011;64096;52.548;13.406;2023-02-01T12:06:51;4.50;;;1.42;;
71821;SDS011;64096;52.548;13.406;2023-02-01T12:14:24;5.10;;;1.27;;
71821;SDS011;64096;52.548;13.406;2023-02-01T12:19:32;7.80;;;1.48;;
71821;SDS011;64096;52.548;13.406;2023-02-01T12:33:20;5.85;;;1.58;;
71821;SDS011;64096;52.548;13.406;2023-02-01T12:35:53;5.82;;;1.50;;
71821;SDS011;64096;52.548;13.406;2023-02-01T12:43:19;7.15;;;1.70;;
71821;SDS011;64096;52.548;13.406;2023-02-01T12:46:01;6.28;;;1.45;;
71821;SDS011;64096;52.548;13.406;2023-02-01T12:51:08;5.97;;;1.60;;
71821;SDS011;64096;52.548;13.406;2023-02-01T12:53:44;7.40;;;1.75;;
71821;SDS011;64096;52.548;13.406;2023-02-01T12:56:13;6.00;;;1.75;;
71821;SDS011;64096;52.548;13.406;2023-02-01T12:58:45;7.53;;;2.20;;
71821;SDS011;64096;52.548;13.406;2023-02-01T13:01:14;8.23;;;1.63;;
71821;SDS011;64096;52.548;13.406;2023-02-01T13:03:50;5.78;;;1.42;;
71821;SDS011;64096;52.548;13.406;2023-02-01T13:06:52;8.07;;;2.03;;
71821;SDS011;64096;52.548;13.406;2023-02-01T13:11:37;9.80;;;1.80;;
71821;SDS011;64096;52.548;13.406;2023-02-01T13:16:41;5.95;;;1.85;;
71821;SDS011;64096;52.548;13.406;2023-02-01T13:19:17;5.85;;;1.70;;
71821;SDS011;64096;52.548;13.406;2023-02-01T13:21:49;2.08;;;0.80;;
71821;SDS011;64096;52.548;13.406;2023-02-01T13:24:29;3.17;;;0.70;;
71821;SDS011;64096;52.548;13.406;2023-02-01T13:26:56;3.13;;;0.82;;
71821;SDS011;64096;52.548;13.406;2023-02-01T13:29:23;4.57;;;1.20;;
71821;SDS011;64096;52.548;13.406;2023-02-01T13:46:55;6.82;;;2.00;;
71821;SDS011;64096;52.548;13.406;2023-02-01T13:49:29;5.18;;;1.40;;
71821;SDS011;64096;52.548;13.406;2023-02-01T13:51:57;8.13;;;1.92;;
71821;SDS011;64096;52.548;13.406;2023-02-01T13:54:39;7.07;;;1.80;;
71821;SDS011;64096;52.548;13.406;2023-02-01T13:57:06;5.25;;;1.48;;
